Keokuk Municipal Airport
Saturday 6:55 PM
Weather Partly Cloudy
VFR
Temperature 73°
Dew Point 59°
Feels Like 73°
Relative Humidity 61
%
Visibility 10
mi
Pressure 1019.6
mb
Wind Direction None
Wind Speed Calm
Last Hour Precip 0.00
"
KEOK 202355Z AUTO 00000KT 10SM BKN120 23/15 A3011 RMK A01

Recent Observations

Time Present Weather Temp DP Feels RH% Vsby Pressure Ceiling Direction Speed Gust 1h Precip
6:55PM
VFR
73° 59° 73° 61
%
10
mi
1019.6
mb
12000
ft
None Calm 0.00"
KEOK 202355Z AUTO 00000KT 10SM BKN120 23/15 A3011 RMK A01
6:35PM
VFR
73° 59° 73° 61
%
10
mi
1019.6
mb
None N 3
mph
0.00"
KEOK 202335Z AUTO 35003KT 10SM FEW120 23/15 A3011 RMK A01
6:15PM
VFR
73° 59° 73° 61
%
10
mi
1019.6
mb
None NNW 5
mph
0.00"
KEOK 202315Z AUTO 34004KT 10SM FEW120 23/15 A3011 RMK A01
5:55PM
VFR
73° 61° 73° 65
%
10
mi
1019.6
mb
None NNW 3
mph
0.00"
KEOK 202255Z AUTO 33003KT 10SM SCT120 23/16 A3011 RMK A01
5:35PM
VFR
73° 59° 73° 61
%
10
mi
1020.0
mb
None NW 6
mph
0.00"
KEOK 202235Z AUTO 32005KT 10SM FEW120 23/15 A3012 RMK A01
5:15PM
VFR
73° 59° 73° 61
%
10
mi
1020.0
mb
None NW 7
mph
0.00"
KEOK 202215Z AUTO 32006KT 10SM CLR 23/15 A3012 RMK A01
4:55PM
VFR
73° 59° 73° 61
%
10
mi
1020.0
mb
None NNW 7
mph
0.00"
KEOK 202155Z AUTO 34006KT 10SM CLR 23/15 A3012 RMK A01
4:35PM
VFR
73° 57° 73° 57
%
10
mi
1020.0
mb
None NW 6
mph
0.00"
KEOK 202135Z AUTO 31005KT 10SM FEW120 23/14 A3012 RMK A01
4:15PM
VFR
73° 59° 73° 61
%
10
mi
1020.3
mb
None NW 6
mph
0.00"
KEOK 202115Z AUTO 32005KT 10SM FEW120 23/15 A3013 RMK A01
3:55PM
VFR
75° 57° 75° 54
%
10
mi
1020.3
mb
None NNW 5
mph
0.00"
KEOK 202055Z AUTO 33004KT 10SM FEW120 24/14 A3013 RMK A01
3:35PM
VFR
73° 59° 73° 61
%
10
mi
1020.3
mb
None WNW 5
mph
0.00"
KEOK 202035Z AUTO 30004KT 10SM FEW060 FEW120 23/15 A3013 RMK A01
3:15PM
VFR
73° 57° 73° 57
%
10
mi
1020.7
mb
None WNW 3
mph
0.00"
KEOK 202015Z AUTO 30003KT 10SM SCT060 23/14 A3014 RMK A01
2:55PM
VFR
73° 57° 73° 57
%
10
mi
1020.7
mb
6000
ft
WNW 5
mph
0.00"
KEOK 201955Z AUTO 30004KT 10SM FEW044 SCT050 BKN060 23/14 A3014 RMK A01
2:15PM
VFR
75° 54° 75° 47
%
10
mi
1020.7
mb
6000
ft
None Calm 0.00"
KEOK 201915Z AUTO 00000KT 10SM BKN060 24/12 A3014 RMK A01
1:55PM
VFR
75° 54° 75° 47
%
10
mi
1021.0
mb
None ENE 5
mph
0.00"
KEOK 201855Z AUTO 06004KT 10SM FEW050 FEW060 24/12 A3015 RMK A01
1:35PM
VFR
75° 54° 75° 47
%
10
mi
1021.0
mb
None ESE 6
mph
0.00"
KEOK 201835Z AUTO 11005KT 10SM FEW060 24/12 A3015 RMK A01
1:15PM
VFR
75° 55° 75° 50
%
10
mi
1021.0
mb
None None Calm 0.00"
KEOK 201815Z AUTO 00000KT 10SM CLR 24/13 A3015 RMK A01
12:55PM
VFR
75° 54° 75° 47
%
10
mi
1020.7
mb
None E 7
mph
0.00"
KEOK 201755Z AUTO 10006KT 10SM FEW045 SCT055 24/12 A3014 RMK A01
12:35PM
VFR
75° 54° 75° 47
%
10
mi
1021.0
mb
5500
ft
ENE 7
mph
0.00"
KEOK 201735Z AUTO 07006KT 10SM SCT046 BKN055 24/12 A3015 RMK A01
12:15PM
VFR
77° 52° 77° 41
%
10
mi
1021.0
mb
None VRB 5
mph
0.00"
KEOK 201715Z AUTO VRB04KT 10SM FEW055 25/11 A3015 RMK A01
Click here to show this page without METARs/TAFs included